sensor_id;sensor_type;location;lat;lon;timestamp;temperature;humidity
17859;DHT22;35426;30.698;104.050;2023-09-08T00:00:33;28.30;99.90
17859;DHT22;35426;30.698;104.050;2023-09-08T00:03:09;28.50;99.90
17859;DHT22;35426;30.698;104.050;2023-09-08T00:05:45;28.60;99.90
17859;DHT22;35426;30.698;104.050;2023-09-08T00:08:19;28.40;99.90
17859;DHT22;35426;30.698;104.050;2023-09-08T00:10:58;28.50;99.90
17859;DHT22;35426;30.698;104.050;2023-09-08T00:13:32;28.40;99.90
17859;DHT22;35426;30.698;104.050;2023-09-08T00:16:06;28.60;99.90
17859;DHT22;35426;30.698;104.050;2023-09-08T00:18:41;28.20;99.90
17859;DHT22;35426;30.698;104.050;2023-09-08T00:21:16;28.30;99.90
17859;DHT22;35426;30.698;104.050;2023-09-08T00:23:50;28.50;99.90
17859;DHT22;35426;30.698;104.050;2023-09-08T00:26:26;28.10;99.90
17859;DHT22;35426;30.698;104.050;2023-09-08T00:29:00;28.40;99.90
17859;DHT22;35426;30.698;104.050;2023-09-08T00:31:35;28.50;99.90
17859;DHT22;35426;30.698;104.050;2023-09-08T00:34:12;28.70;99.90
17859;DHT22;35426;30.698;104.050;2023-09-08T00:36:46;28.70;99.90
17859;DHT22;35426;30.698;104.050;2023-09-08T00:39:20;28.80;99.90
17859;DHT22;35426;30.698;104.050;2023-09-08T00:41:56;28.90;99.90
17859;DHT22;35426;30.698;104.050;2023-09-08T00:44:30;28.80;99.90
17859;DHT22;35426;30.698;104.050;2023-09-08T00:47:06;28.60;99.90
17859;DHT22;35426;30.698;104.050;2023-09-08T00:49:40;28.70;99.90
17859;DHT22;35426;30.698;104.050;2023-09-08T00:52:14;28.70;99.90
17859;DHT22;35426;30.698;104.050;2023-09-08T00:54:49;28.70;99.90
17859;DHT22;35426;30.698;104.050;2023-09-08T00:57:25;29.10;99.90
17859;DHT22;35426;30.698;104.050;2023-09-08T01:00:00;29.30;99.90
17859;DHT22;35426;30.698;104.050;2023-09-08T01:02:35;29.30;99.90
17859;DHT22;35426;30.698;104.050;2023-09-08T01:05:09;29.40;99.90
17859;DHT22;35426;30.698;104.050;2023-09-08T01:07:46;29.60;99.90
17859;DHT22;35426;30.698;104.050;2023-09-08T01:10:20;29.60;99.90
17859;DHT22;35426;30.698;104.050;2023-09-08T01:12:57;29.70;99.90
17859;DHT22;35426;30.698;104.050;2023-09-08T01:15:32;29.90;99.90
17859;DHT22;35426;30.698;104.050;2023-09-08T01:18:06;30.10;99.90
17859;DHT22;35426;30.698;104.050;2023-09-08T01:20:53;30.40;99.90
17859;DHT22;35426;30.698;104.050;2023-09-08T01:23:42;30.80;99.90
17859;DHT22;35426;30.698;104.050;2023-09-08T01:26:29;30.70;99.90
17859;DHT22;35426;30.698;104.050;2023-09-08T01:29:06;31.10;99.90
17859;DHT22;35426;30.698;104.050;2023-09-08T01:31:41;30.80;99.90
17859;DHT22;35426;30.698;104.050;2023-09-08T01:34:15;31.40;99.90
17859;DHT22;35426;30.698;104.050;2023-09-08T01:36:50;31.90;99.90
17859;DHT22;35426;30.698;104.050;2023-09-08T01:39:25;32.30;99.90
17859;DHT22;35426;30.698;104.050;2023-09-08T01:42:01;33.40;99.90
17859;DHT22;35426;30.698;104.050;2023-09-08T01:44:35;33.60;99.90
17859;DHT22;35426;30.698;104.050;2023-09-08T01:47:09;32.90;99.90
17859;DHT22;35426;30.698;104.050;2023-09-08T01:49:43;32.60;99.90
17859;DHT22;35426;30.698;104.050;2023-09-08T01:52:17;33.10;99.90
17859;DHT22;35426;30.698;104.050;2023-09-08T01:54:52;33.30;99.90
17859;DHT22;35426;30.698;104.050;2023-09-08T01:57:28;33.80;99.90
17859;DHT22;35426;30.698;104.050;2023-09-08T02:00:02;34.40;99.90
17859;DHT22;35426;30.698;104.050;2023-09-08T02:02:40;34.20;99.90
17859;DHT22;35426;30.698;104.050;2023-09-08T02:05:15;34.50;99.90
17859;DHT22;35426;30.698;104.050;2023-09-08T02:07:50;34.40;99.90
17859;DHT22;35426;30.698;104.050;2023-09-08T02:10:26;34.40;99.90
17859;DHT22;35426;30.698;104.050;2023-09-08T02:13:02;34.20;99.90
17859;DHT22;35426;30.698;104.050;2023-09-08T02:15:37;33.90;99.90
17859;DHT22;35426;30.698;104.050;2023-09-08T02:18:13;33.50;99.90
17859;DHT22;35426;30.698;104.050;2023-09-08T02:20:47;33.40;99.90
17859;DHT22;35426;30.698;104.050;2023-09-08T02:23:21;33.30;99.90
17859;DHT22;35426;30.698;104.050;2023-09-08T02:25:56;33.10;99.90
17859;DHT22;35426;30.698;104.050;2023-09-08T02:28:32;33.00;99.90
17859;DHT22;35426;30.698;104.050;2023-09-08T02:31:07;32.80;99.90
17859;DHT22;35426;30.698;104.050;2023-09-08T02:33:43;32.90;99.90
17859;DHT22;35426;30.698;104.050;2023-09-08T02:36:18;32.70;99.90
17859;DHT22;35426;30.698;104.050;2023-09-08T02:38:59;32.30;99.90
17859;DHT22;35426;30.698;104.050;2023-09-08T02:41:33;32.00;99.90
17859;DHT22;35426;30.698;104.050;2023-09-08T02:44:10;31.80;99.90
17859;DHT22;35426;30.698;104.050;2023-09-08T02:46:50;32.00;99.90
17859;DHT22;35426;30.698;104.050;2023-09-08T02:49:27;32.00;99.90
17859;DHT22;35426;30.698;104.050;2023-09-08T02:52:02;32.10;99.90
17859;DHT22;35426;30.698;104.050;2023-09-08T02:54:36;32.20;99.90
17859;DHT22;35426;30.698;104.050;2023-09-08T02:57:10;32.50;99.90
17859;DHT22;35426;30.698;104.050;2023-09-08T02:59:49;32.80;99.90
17859;DHT22;35426;30.698;104.050;2023-09-08T03:02:27;33.00;99.90
17859;DHT22;35426;30.698;104.050;2023-09-08T03:05:02;33.30;99.90
17859;DHT22;35426;30.698;104.050;2023-09-08T03:07:39;33.00;99.90
17859;DHT22;35426;30.698;104.050;2023-09-08T03:10:13;33.40;99.90
17859;DHT22;35426;30.698;104.050;2023-09-08T03:12:48;33.70;99.90
17859;DHT22;35426;30.698;104.050;2023-09-08T03:15:23;34.00;99.90
17859;DHT22;35426;30.698;104.050;2023-09-08T03:17:59;34.20;99.90
17859;DHT22;35426;30.698;104.050;2023-09-08T03:20:36;34.10;99.90
17859;DHT22;35426;30.698;104.050;2023-09-08T03:23:12;34.50;99.90
17859;DHT22;35426;30.698;104.050;2023-09-08T03:25:48;34.00;99.90
17859;DHT22;35426;30.698;104.050;2023-09-08T03:28:22;34.40;99.90
17859;DHT22;35426;30.698;104.050;2023-09-08T03:30:58;34.90;99.90
17859;DHT22;35426;30.698;104.050;2023-09-08T03:33:36;35.70;99.90
17859;DHT22;35426;30.698;104.050;2023-09-08T03:36:10;35.60;99.90
17859;DHT22;35426;30.698;104.050;2023-09-08T03:38:45;35.70;99.90
17859;DHT22;35426;30.698;104.050;2023-09-08T03:41:19;35.50;99.90
17859;DHT22;35426;30.698;104.050;2023-09-08T03:43:52;36.20;99.90
17859;DHT22;35426;30.698;104.050;2023-09-08T03:46:30;36.40;99.90
17859;DHT22;35426;30.698;104.050;2023-09-08T03:49:04;36.00;99.90
17859;DHT22;35426;30.698;104.050;2023-09-08T03:51:39;35.40;99.90
17859;DHT22;35426;30.698;104.050;2023-09-08T03:54:13;35.10;99.90
17859;DHT22;35426;30.698;104.050;2023-09-08T03:56:49;35.20;99.90
17859;DHT22;35426;30.698;104.050;2023-09-08T03:59:23;34.20;99.90
17859;DHT22;35426;30.698;104.050;2023-09-08T04:01:59;34.20;99.90
17859;DHT22;35426;30.698;104.050;2023-09-08T04:04:34;34.60;99.90
17859;DHT22;35426;30.698;104.050;2023-09-08T04:07:09;34.40;99.90
17859;DHT22;35426;30.698;104.050;2023-09-08T04:09:44;34.40;99.90
17859;DHT22;35426;30.698;104.050;2023-09-08T04:12:19;34.80;99.90
17859;DHT22;35426;30.698;104.050;2023-09-08T04:14:53;34.80;99.90
17859;DHT22;35426;30.698;104.050;2023-09-08T04:17:29;34.90;99.90
17859;DHT22;35426;30.698;104.050;2023-09-08T04:20:05;34.80;99.90
17859;DHT22;35426;30.698;104.050;2023-09-08T04:22:39;34.20;99.90
17859;DHT22;35426;30.698;104.050;2023-09-08T04:25:14;34.00;99.90
17859;DHT22;35426;30.698;104.050;2023-09-08T04:27:48;34.00;99.90
17859;DHT22;35426;30.698;104.050;2023-09-08T04:30:23;34.20;99.90
17859;DHT22;35426;30.698;104.050;2023-09-08T04:32:59;34.70;99.90
17859;DHT22;35426;30.698;104.050;2023-09-08T04:35:35;34.80;99.90
17859;DHT22;35426;30.698;104.050;2023-09-08T04:38:09;34.50;99.90
17859;DHT22;35426;30.698;104.050;2023-09-08T04:40:46;33.80;99.90
17859;DHT22;35426;30.698;104.050;2023-09-08T04:43:20;33.90;99.90
17859;DHT22;35426;30.698;104.050;2023-09-08T04:45:54;33.40;99.90
17859;DHT22;35426;30.698;104.050;2023-09-08T04:48:31;33.10;99.90
17859;DHT22;35426;30.698;104.050;2023-09-08T04:51:09;33.50;99.90
17859;DHT22;35426;30.698;104.050;2023-09-08T04:53:43;33.30;99.90
17859;DHT22;35426;30.698;104.050;2023-09-08T04:56:18;33.30;99.90
17859;DHT22;35426;30.698;104.050;2023-09-08T04:58:52;33.50;99.90
17859;DHT22;35426;30.698;104.050;2023-09-08T05:01:26;33.60;99.90
17859;DHT22;35426;30.698;104.050;2023-09-08T05:04:05;33.70;99.90
17859;DHT22;35426;30.698;104.050;2023-09-08T05:06:40;33.80;99.90
17859;DHT22;35426;30.698;104.050;2023-09-08T05:09:16;33.70;99.90
17859;DHT22;35426;30.698;104.050;2023-09-08T05:11:50;33.70;99.90
17859;DHT22;35426;30.698;104.050;2023-09-08T05:14:24;33.60;99.90
17859;DHT22;35426;30.698;104.050;2023-09-08T05:17:00;33.50;99.90
17859;DHT22;35426;30.698;104.050;2023-09-08T05:19:38;33.60;99.90
17859;DHT22;35426;30.698;104.050;2023-09-08T05:22:12;33.30;99.90
17859;DHT22;35426;30.698;104.050;2023-09-08T05:24:46;33.20;99.90
17859;DHT22;35426;30.698;104.050;2023-09-08T05:27:21;33.30;99.90
17859;DHT22;35426;30.698;104.050;2023-09-08T05:29:56;33.10;99.90
17859;DHT22;35426;30.698;104.050;2023-09-08T05:32:32;33.00;99.90
17859;DHT22;35426;30.698;104.050;2023-09-08T05:35:08;33.00;99.90
17859;DHT22;35426;30.698;104.050;2023-09-08T05:37:42;33.10;99.90
17859;DHT22;35426;30.698;104.050;2023-09-08T05:40:16;32.60;99.90
17859;DHT22;35426;30.698;104.050;2023-09-08T05:42:52;32.40;99.90
17859;DHT22;35426;30.698;104.050;2023-09-08T05:45:26;32.20;99.90
17859;DHT22;35426;30.698;104.050;2023-09-08T05:48:02;32.10;99.90
17859;DHT22;35426;30.698;104.050;2023-09-08T05:50:39;32.20;99.90
17859;DHT22;35426;30.698;104.050;2023-09-08T05:53:14;32.30;99.90
17859;DHT22;35426;30.698;104.050;2023-09-08T05:55:48;32.30;99.90
17859;DHT22;35426;30.698;104.050;2023-09-08T05:58:23;32.10;99.90
17859;DHT22;35426;30.698;104.050;2023-09-08T06:00:59;32.10;99.90
17859;DHT22;35426;30.698;104.050;2023-09-08T06:03:35;32.30;99.90
17859;DHT22;35426;30.698;104.050;2023-09-08T06:06:11;32.30;99.90
17859;DHT22;35426;30.698;104.050;2023-09-08T06:08:46;32.10;99.90
17859;DHT22;35426;30.698;104.050;2023-09-08T06:11:20;32.20;99.90
17859;DHT22;35426;30.698;104.050;2023-09-08T06:13:55;32.10;99.90
17859;DHT22;35426;30.698;104.050;2023-09-08T06:16:36;32.10;99.90
17859;DHT22;35426;30.698;104.050;2023-09-08T06:19:12;32.00;99.90
17859;DHT22;35426;30.698;104.050;2023-09-08T06:21:49;32.40;99.90
17859;DHT22;35426;30.698;104.050;2023-09-08T06:24:24;32.50;99.90
17859;DHT22;35426;30.698;104.050;2023-09-08T06:27:01;32.70;99.90
17859;DHT22;35426;30.698;104.050;2023-09-08T06:29:36;32.80;99.90
17859;DHT22;35426;30.698;104.050;2023-09-08T06:32:12;32.70;99.90
17859;DHT22;35426;30.698;104.050;2023-09-08T06:34:48;32.80;99.90
17859;DHT22;35426;30.698;104.050;2023-09-08T06:37:24;32.80;99.90
17859;DHT22;35426;30.698;104.050;2023-09-08T06:40:00;32.70;99.90
17859;DHT22;35426;30.698;104.050;2023-09-08T06:42:36;32.60;99.90
17859;DHT22;35426;30.698;104.050;2023-09-08T06:45:33;32.70;99.90
17859;DHT22;35426;30.698;104.050;2023-09-08T06:48:07;32.70;99.90
17859;DHT22;35426;30.698;104.050;2023-09-08T06:50:42;32.60;99.90
17859;DHT22;35426;30.698;104.050;2023-09-08T06:53:18;32.70;99.90
17859;DHT22;35426;30.698;104.050;2023-09-08T06:55:53;32.80;99.90
17859;DHT22;35426;30.698;104.050;2023-09-08T06:58:27;32.90;99.90
17859;DHT22;35426;30.698;104.050;2023-09-08T07:01:02;32.90;99.90
17859;DHT22;35426;30.698;104.050;2023-09-08T07:03:37;33.20;99.90
17859;DHT22;35426;30.698;104.050;2023-09-08T07:06:12;33.50;99.90
17859;DHT22;35426;30.698;104.050;2023-09-08T07:08:49;33.70;99.90
17859;DHT22;35426;30.698;104.050;2023-09-08T07:11:23;34.10;99.90
17859;DHT22;35426;30.698;104.050;2023-09-08T07:13:58;34.40;99.90
17859;DHT22;35426;30.698;104.050;2023-09-08T07:16:33;34.50;99.90
17859;DHT22;35426;30.698;104.050;2023-09-08T07:19:08;34.30;99.90
17859;DHT22;35426;30.698;104.050;2023-09-08T07:21:42;33.90;99.90
17859;DHT22;35426;30.698;104.050;2023-09-08T07:24:18;34.00;99.90
17859;DHT22;35426;30.698;104.050;2023-09-08T07:26:53;34.20;99.90
17859;DHT22;35426;30.698;104.050;2023-09-08T07:29:28;34.20;99.90
17859;DHT22;35426;30.698;104.050;2023-09-08T07:32:03;34.30;99.90
17859;DHT22;35426;30.698;104.050;2023-09-08T07:34:37;33.80;99.90
17859;DHT22;35426;30.698;104.050;2023-09-08T07:37:11;33.80;99.90
17859;DHT22;35426;30.698;104.050;2023-09-08T07:39:48;33.70;99.90
17859;DHT22;35426;30.698;104.050;2023-09-08T07:42:23;33.70;99.90
17859;DHT22;35426;30.698;104.050;2023-09-08T07:44:58;33.50;99.90
17859;DHT22;35426;30.698;104.050;2023-09-08T07:47:32;33.40;99.90
17859;DHT22;35426;30.698;104.050;2023-09-08T07:50:19;33.50;99.90
17859;DHT22;35426;30.698;104.050;2023-09-08T07:52:55;33.40;99.90
17859;DHT22;35426;30.698;104.050;2023-09-08T07:55:31;33.30;99.90
17859;DHT22;35426;30.698;104.050;2023-09-08T07:58:06;33.30;99.90
17859;DHT22;35426;30.698;104.050;2023-09-08T08:00:39;33.20;99.90
17859;DHT22;35426;30.698;104.050;2023-09-08T08:03:13;33.10;99.90
17859;DHT22;35426;30.698;104.050;2023-09-08T08:05:47;32.90;99.90
17859;DHT22;35426;30.698;104.050;2023-09-08T08:08:22;32.90;99.90
17859;DHT22;35426;30.698;104.050;2023-09-08T08:11:00;33.00;99.90
17859;DHT22;35426;30.698;104.050;2023-09-08T08:13:35;33.10;99.90
17859;DHT22;35426;30.698;104.050;2023-09-08T08:16:11;33.30;99.90
17859;DHT22;35426;30.698;104.050;2023-09-08T08:18:45;33.30;99.90
17859;DHT22;35426;30.698;104.050;2023-09-08T08:21:20;33.00;99.90
17859;DHT22;35426;30.698;104.050;2023-09-08T08:23:56;32.50;99.90
17859;DHT22;35426;30.698;104.050;2023-09-08T08:26:32;32.30;99.90
17859;DHT22;35426;30.698;104.050;2023-09-08T08:29:06;32.40;99.90
17859;DHT22;35426;30.698;104.050;2023-09-08T08:31:41;32.30;99.90
17859;DHT22;35426;30.698;104.050;2023-09-08T08:34:16;32.50;99.90
17859;DHT22;35426;30.698;104.050;2023-09-08T08:36:50;32.50;99.90
17859;DHT22;35426;30.698;104.050;2023-09-08T08:39:24;32.80;99.90
17859;DHT22;35426;30.698;104.050;2023-09-08T08:42:07;33.10;99.90
17859;DHT22;35426;30.698;104.050;2023-09-08T08:44:42;33.30;99.90
17859;DHT22;35426;30.698;104.050;2023-09-08T08:47:18;33.30;99.90
17859;DHT22;35426;30.698;104.050;2023-09-08T08:49:55;33.40;99.90
17859;DHT22;35426;30.698;104.050;2023-09-08T08:52:31;33.20;99.90
17859;DHT22;35426;30.698;104.050;2023-09-08T08:55:06;32.90;99.90
17859;DHT22;35426;30.698;104.050;2023-09-08T08:57:42;32.80;99.90
17859;DHT22;35426;30.698;104.050;2023-09-08T09:00:17;32.90;99.90
17859;DHT22;35426;30.698;104.050;2023-09-08T09:02:52;33.00;99.90
17859;DHT22;35426;30.698;104.050;2023-09-08T09:05:44;32.80;99.90
17859;DHT22;35426;30.698;104.050;2023-09-08T09:08:19;32.80;99.90
17859;DHT22;35426;30.698;104.050;2023-09-08T09:10:55;32.60;99.90
17859;DHT22;35426;30.698;104.050;2023-09-08T09:13:32;32.10;99.90
17859;DHT22;35426;30.698;104.050;2023-09-08T09:16:06;32.30;99.90
17859;DHT22;35426;30.698;104.050;2023-09-08T09:18:57;32.20;99.90
17859;DHT22;35426;30.698;104.050;2023-09-08T09:21:43;32.40;99.90
17859;DHT22;35426;30.698;104.050;2023-09-08T09:24:28;32.40;99.90
17859;DHT22;35426;30.698;104.050;2023-09-08T09:27:03;32.60;99.90
17859;DHT22;35426;30.698;104.050;2023-09-08T09:29:47;32.60;99.90
17859;DHT22;35426;30.698;104.050;2023-09-08T09:32:25;32.60;99.90
17859;DHT22;35426;30.698;104.050;2023-09-08T09:35:00;32.60;99.90
17859;DHT22;35426;30.698;104.050;2023-09-08T09:37:35;32.40;99.90
17859;DHT22;35426;30.698;104.050;2023-09-08T09:40:10;32.40;99.90
17859;DHT22;35426;30.698;104.050;2023-09-08T09:42:44;32.40;99.90
17859;DHT22;35426;30.698;104.050;2023-09-08T09:45:21;32.50;99.90
17859;DHT22;35426;30.698;104.050;2023-09-08T09:47:58;32.40;99.90
17859;DHT22;35426;30.698;104.050;2023-09-08T09:50:35;32.30;99.90
17859;DHT22;35426;30.698;104.050;2023-09-08T09:53:10;32.40;99.90
17859;DHT22;35426;30.698;104.050;2023-09-08T09:55:45;32.30;99.90
17859;DHT22;35426;30.698;104.050;2023-09-08T09:58:19;32.20;99.90
17859;DHT22;35426;30.698;104.050;2023-09-08T10:00:56;32.20;99.90
17859;DHT22;35426;30.698;104.050;2023-09-08T10:03:33;32.10;99.90
17859;DHT22;35426;30.698;104.050;2023-09-08T10:06:07;32.00;99.90
17859;DHT22;35426;30.698;104.050;2023-09-08T10:08:43;32.00;99.90
17859;DHT22;35426;30.698;104.050;2023-09-08T10:11:21;31.80;99.90
17859;DHT22;35426;30.698;104.050;2023-09-08T10:13:58;31.80;99.90
17859;DHT22;35426;30.698;104.050;2023-09-08T10:16:36;31.80;99.90
17859;DHT22;35426;30.698;104.050;2023-09-08T10:19:13;31.60;99.90
17859;DHT22;35426;30.698;104.050;2023-09-08T10:21:47;31.40;99.90
17859;DHT22;35426;30.698;104.050;2023-09-08T10:24:24;31.40;99.90
17859;DHT22;35426;30.698;104.050;2023-09-08T10:27:02;31.40;99.90
17859;DHT22;35426;30.698;104.050;2023-09-08T10:29:40;31.30;99.90
17859;DHT22;35426;30.698;104.050;2023-09-08T10:32:17;31.20;99.90
17859;DHT22;35426;30.698;104.050;2023-09-08T10:34:53;31.10;99.90
17859;DHT22;35426;30.698;104.050;2023-09-08T10:37:28;31.30;99.90
17859;DHT22;35426;30.698;104.050;2023-09-08T10:40:21;31.30;99.90
17859;DHT22;35426;30.698;104.050;2023-09-08T10:43:07;31.30;99.90
17859;DHT22;35426;30.698;104.050;2023-09-08T10:45:42;31.30;99.90
17859;DHT22;35426;30.698;104.050;2023-09-08T10:48:20;31.30;99.90
17859;DHT22;35426;30.698;104.050;2023-09-08T10:50:54;31.30;99.90
17859;DHT22;35426;30.698;104.050;2023-09-08T10:53:29;31.20;99.90
17859;DHT22;35426;30.698;104.050;2023-09-08T10:56:05;31.20;99.90
17859;DHT22;35426;30.698;104.050;2023-09-08T10:58:51;31.10;99.90
17859;DHT22;35426;30.698;104.050;2023-09-08T11:01:25;31.10;99.90
17859;DHT22;35426;30.698;104.050;2023-09-08T11:04:05;31.10;99.90
17859;DHT22;35426;30.698;104.050;2023-09-08T11:06:43;31.00;99.90
17859;DHT22;35426;30.698;104.050;2023-09-08T11:09:17;31.00;99.90
17859;DHT22;35426;30.698;104.050;2023-09-08T11:11:54;30.90;99.90
17859;DHT22;35426;30.698;104.050;2023-09-08T11:14:29;30.80;99.90
17859;DHT22;35426;30.698;104.050;2023-09-08T11:17:05;30.80;99.90
17859;DHT22;35426;30.698;104.050;2023-09-08T11:19:49;30.80;99.90
17859;DHT22;35426;30.698;104.050;2023-09-08T11:22:25;30.70;99.90
17859;DHT22;35426;30.698;104.050;2023-09-08T11:25:00;30.60;99.90
17859;DHT22;35426;30.698;104.050;2023-09-08T11:27:35;30.70;99.90
17859;DHT22;35426;30.698;104.050;2023-09-08T11:30:11;30.60;99.90
17859;DHT22;35426;30.698;104.050;2023-09-08T11:32:46;30.50;99.90
17859;DHT22;35426;30.698;104.050;2023-09-08T11:35:23;30.50;99.90
17859;DHT22;35426;30.698;104.050;2023-09-08T11:38:00;30.60;99.90
17859;DHT22;35426;30.698;104.050;2023-09-08T11:40:35;30.50;99.90
17859;DHT22;35426;30.698;104.050;2023-09-08T11:43:11;30.50;99.90
17859;DHT22;35426;30.698;104.050;2023-09-08T11:45:45;30.50;99.90
17859;DHT22;35426;30.698;104.050;2023-09-08T11:48:20;30.40;99.90
17859;DHT22;35426;30.698;104.050;2023-09-08T11:50:56;30.40;99.90
17859;DHT22;35426;30.698;104.050;2023-09-08T11:53:31;30.30;99.90
17859;DHT22;35426;30.698;104.050;2023-09-08T11:56:05;30.40;99.90
17859;DHT22;35426;30.698;104.050;2023-09-08T11:58:39;30.30;99.90
17859;DHT22;35426;30.698;104.050;2023-09-08T12:01:15;30.30;99.90
17859;DHT22;35426;30.698;104.050;2023-09-08T12:03:55;30.20;99.90
17859;DHT22;35426;30.698;104.050;2023-09-08T12:06:32;30.10;99.90
17859;DHT22;35426;30.698;104.050;2023-09-08T12:09:08;30.10;99.90
17859;DHT22;35426;30.698;104.050;2023-09-08T12:11:43;30.00;99.90
17859;DHT22;35426;30.698;104.050;2023-09-08T12:14:17;30.10;99.90
17859;DHT22;35426;30.698;104.050;2023-09-08T12:17:06;30.10;99.90
17859;DHT22;35426;30.698;104.050;2023-09-08T12:19:43;30.10;99.90
17859;DHT22;35426;30.698;104.050;2023-09-08T12:22:20;30.10;99.90
17859;DHT22;35426;30.698;104.050;2023-09-08T12:24:58;30.00;99.90
17859;DHT22;35426;30.698;104.050;2023-09-08T12:27:37;30.10;99.90
17859;DHT22;35426;30.698;104.050;2023-09-08T12:30:18;30.20;99.90
17859;DHT22;35426;30.698;104.050;2023-09-08T12:32:52;30.10;99.90
17859;DHT22;35426;30.698;104.050;2023-09-08T12:35:27;30.10;99.90
17859;DHT22;35426;30.698;104.050;2023-09-08T12:38:04;30.10;99.90
17859;DHT22;35426;30.698;104.050;2023-09-08T12:40:39;30.10;99.90
17859;DHT22;35426;30.698;104.050;2023-09-08T12:43:15;30.10;99.90
17859;DHT22;35426;30.698;104.050;2023-09-08T12:45:57;30.00;99.90
17859;DHT22;35426;30.698;104.050;2023-09-08T12:48:31;29.90;99.90
17859;DHT22;35426;30.698;104.050;2023-09-08T12:51:06;29.90;99.90
17859;DHT22;35426;30.698;104.050;2023-09-08T12:53:42;29.90;99.90
17859;DHT22;35426;30.698;104.050;2023-09-08T12:56:17;29.90;99.90
17859;DHT22;35426;30.698;104.050;2023-09-08T12:58:53;29.90;99.90
17859;DHT22;35426;30.698;104.050;2023-09-08T13:01:30;29.80;99.90
17859;DHT22;35426;30.698;104.050;2023-09-08T13:04:05;29.70;99.90
17859;DHT22;35426;30.698;104.050;2023-09-08T13:06:43;29.80;99.90
17859;DHT22;35426;30.698;104.050;2023-09-08T13:09:19;29.80;99.90
17859;DHT22;35426;30.698;104.050;2023-09-08T13:11:54;29.80;99.90
17859;DHT22;35426;30.698;104.050;2023-09-08T13:14:28;29.70;99.90
17859;DHT22;35426;30.698;104.050;2023-09-08T13:17:02;29.70;99.90
17859;DHT22;35426;30.698;104.050;2023-09-08T13:19:37;29.70;99.90
17859;DHT22;35426;30.698;104.050;2023-09-08T13:22:11;29.70;99.90
17859;DHT22;35426;30.698;104.050;2023-09-08T13:24:47;29.60;99.90
17859;DHT22;35426;30.698;104.050;2023-09-08T13:27:21;29.70;99.90
17859;DHT22;35426;30.698;104.050;2023-09-08T13:30:03;29.70;99.90
17859;DHT22;35426;30.698;104.050;2023-09-08T13:32:41;29.70;99.90
17859;DHT22;35426;30.698;104.050;2023-09-08T13:35:16;29.70;99.90
17859;DHT22;35426;30.698;104.050;2023-09-08T13:37:50;29.80;99.90
17859;DHT22;35426;30.698;104.050;2023-09-08T13:40:28;29.70;99.90
17859;DHT22;35426;30.698;104.050;2023-09-08T13:43:04;29.50;99.90
17859;DHT22;35426;30.698;104.050;2023-09-08T13:45:38;29.60;99.90
17859;DHT22;35426;30.698;104.050;2023-09-08T13:48:13;29.40;99.90
17859;DHT22;35426;30.698;104.050;2023-09-08T13:50:48;29.40;99.90
17859;DHT22;35426;30.698;104.050;2023-09-08T13:53:23;29.40;99.90
17859;DHT22;35426;30.698;104.050;2023-09-08T13:56:17;29.50;99.90
17859;DHT22;35426;30.698;104.050;2023-09-08T13:58:55;29.50;99.90
17859;DHT22;35426;30.698;104.050;2023-09-08T14:01:34;29.70;99.90
17859;DHT22;35426;30.698;104.050;2023-09-08T14:04:10;29.80;99.90
17859;DHT22;35426;30.698;104.050;2023-09-08T14:06:47;29.70;99.90
17859;DHT22;35426;30.698;104.050;2023-09-08T14:09:29;29.70;99.90
17859;DHT22;35426;30.698;104.050;2023-09-08T14:12:24;29.60;99.90
17859;DHT22;35426;30.698;104.050;2023-09-08T14:15:05;29.50;99.90
17859;DHT22;35426;30.698;104.050;2023-09-08T14:17:40;29.50;99.90
17859;DHT22;35426;30.698;104.050;2023-09-08T14:20:14;29.60;99.90
17859;DHT22;35426;30.698;104.050;2023-09-08T14:22:49;29.50;99.90
17859;DHT22;35426;30.698;104.050;2023-09-08T14:25:23;29.50;99.90
17859;DHT22;35426;30.698;104.050;2023-09-08T14:28:00;29.50;99.90
17859;DHT22;35426;30.698;104.050;2023-09-08T14:30:36;29.60;99.90
17859;DHT22;35426;30.698;104.050;2023-09-08T14:33:12;29.60;99.90
17859;DHT22;35426;30.698;104.050;2023-09-08T14:35:46;29.70;99.90
17859;DHT22;35426;30.698;104.050;2023-09-08T14:38:22;29.70;99.90
17859;DHT22;35426;30.698;104.050;2023-09-08T14:40:59;29.80;99.90
17859;DHT22;35426;30.698;104.050;2023-09-08T14:43:35;29.80;99.90
17859;DHT22;35426;30.698;104.050;2023-09-08T14:46:09;29.80;99.90
17859;DHT22;35426;30.698;104.050;2023-09-08T14:48:43;29.80;99.90
17859;DHT22;35426;30.698;104.050;2023-09-08T14:51:18;29.80;99.90
17859;DHT22;35426;30.698;104.050;2023-09-08T14:53:52;29.80;99.90
17859;DHT22;35426;30.698;104.050;2023-09-08T14:56:26;29.80;99.90
17859;DHT22;35426;30.698;104.050;2023-09-08T14:59:02;29.80;99.90
17859;DHT22;35426;30.698;104.050;2023-09-08T15:01:36;29.80;99.90
17859;DHT22;35426;30.698;104.050;2023-09-08T15:04:12;29.80;99.90
17859;DHT22;35426;30.698;104.050;2023-09-08T15:06:46;29.70;99.90
17859;DHT22;35426;30.698;104.050;2023-09-08T15:09:21;29.60;99.90
17859;DHT22;35426;30.698;104.050;2023-09-08T15:11:56;29.70;99.90
17859;DHT22;35426;30.698;104.050;2023-09-08T15:14:33;29.80;99.90
17859;DHT22;35426;30.698;104.050;2023-09-08T15:17:08;29.80;99.90
17859;DHT22;35426;30.698;104.050;2023-09-08T15:19:43;29.70;99.90
17859;DHT22;35426;30.698;104.050;2023-09-08T15:22:17;29.80;99.90
17859;DHT22;35426;30.698;104.050;2023-09-08T15:24:51;29.90;99.90
17859;DHT22;35426;30.698;104.050;2023-09-08T15:27:26;29.80;99.90
17859;DHT22;35426;30.698;104.050;2023-09-08T15:30:02;29.80;99.90
17859;DHT22;35426;30.698;104.050;2023-09-08T15:32:37;29.70;99.90
17859;DHT22;35426;30.698;104.050;2023-09-08T15:35:11;29.60;99.90
17859;DHT22;35426;30.698;104.050;2023-09-08T15:37:45;29.30;99.90
17859;DHT22;35426;30.698;104.050;2023-09-08T15:40:19;28.90;99.90
17859;DHT22;35426;30.698;104.050;2023-09-08T15:42:54;28.80;99.90
17859;DHT22;35426;30.698;104.050;2023-09-08T15:45:30;28.80;99.90
17859;DHT22;35426;30.698;104.050;2023-09-08T15:48:04;28.70;99.90
17859;DHT22;35426;30.698;104.050;2023-09-08T15:50:39;28.80;99.90
17859;DHT22;35426;30.698;104.050;2023-09-08T15:53:13;28.80;99.90
17859;DHT22;35426;30.698;104.050;2023-09-08T15:55:47;28.80;99.90